createdAt,value
2023-04-06T00:01:56.101Z,102766.84
2023-04-06T00:04:23.839Z,102771.16
2023-04-06T00:06:51.591Z,102766.88
2023-04-06T00:09:19.344Z,102770.28
2023-04-06T00:11:47.225Z,102773.72
2023-04-06T00:14:15.026Z,102772.88
2023-04-06T00:16:43.085Z,102768.59
2023-04-06T00:19:12.240Z,102769.44
2023-04-06T00:21:40.266Z,102772.84
2023-04-06T00:24:08.165Z,102772.84
2023-04-06T00:26:35.883Z,102776.25
2023-04-06T00:29:03.702Z,102775.38
2023-04-06T00:31:31.584Z,102773.66
2023-04-06T00:34:00.084Z,102777.94
2023-04-06T00:36:29.187Z,102782.22
2023-04-06T00:38:57.049Z,102785.63
2023-04-06T00:41:24.861Z,102778.75
2023-04-06T00:43:53.091Z,102773.63
2023-04-06T00:46:20.938Z,102782.19
2023-04-06T00:48:48.846Z,102781.28
2023-04-06T00:51:16.773Z,102780.44
2023-04-06T00:53:46.074Z,102787.28
2023-04-06T00:56:13.766Z,102786.41
2023-04-06T00:58:41.728Z,102788.16
2023-04-06T01:01:09.506Z,102780.47
2023-04-06T01:03:37.485Z,102788.16
2023-04-06T01:06:05.481Z,102779.59
2023-04-06T01:08:33.286Z,102780.44
2023-04-06T01:11:02.956Z,102783.84
2023-04-06T01:13:30.758Z,102782.13
2023-04-06T01:15:58.528Z,102778.66
2023-04-06T01:18:27.805Z,102778.69
2023-04-06T01:20:55.545Z,102776.94
2023-04-06T01:23:24.831Z,102780.38
2023-04-06T01:25:52.681Z,102776.91
2023-04-06T01:28:20.472Z,102770.88
2023-04-06T01:30:48.270Z,102773.44
2023-04-06T01:33:16.165Z,102771.75
2023-04-06T01:35:43.979Z,102776.88
2023-04-06T01:38:11.915Z,102770.84
2023-04-06T01:40:41.144Z,102774.28
2023-04-06T01:43:08.874Z,102772.56
2023-04-06T01:45:36.687Z,102781.13
2023-04-06T01:48:04.742Z,102778.53
2023-04-06T01:50:32.553Z,102783.69
2023-04-06T01:53:00.273Z,102781.09
2023-04-06T01:55:28.142Z,102787.06
2023-04-06T01:57:57.207Z,102791.31
2023-04-06T02:00:25.005Z,102782.75
2023-04-06T02:02:52.885Z,102779.34
2023-04-06T02:05:21.543Z,102787.03
2023-04-06T02:07:50.083Z,102792.16
2023-04-06T02:10:17.809Z,102783.59
2023-04-06T02:12:45.537Z,102790.47
2023-04-06T02:15:15.501Z,102790.47
2023-04-06T02:17:43.320Z,102792.13
2023-04-06T02:20:11.606Z,102788.69
2023-04-06T02:22:39.271Z,102791.25
2023-04-06T02:25:07.302Z,102791.25
2023-04-06T02:27:35.000Z,102793.78
2023-04-06T02:30:02.791Z,102794.59
2023-04-06T02:32:32.019Z,102789.47
2023-04-06T02:34:59.910Z,102787.78
2023-04-06T02:37:27.598Z,102783.50
2023-04-06T02:39:55.527Z,102782.59
2023-04-06T02:42:23.237Z,102782.63
2023-04-06T02:44:51.170Z,102781.75
2023-04-06T02:47:18.931Z,102780.94
2023-04-06T02:49:48.655Z,102773.19
2023-04-06T02:52:16.495Z,102780.94
2023-04-06T02:54:44.266Z,102783.50
2023-04-06T02:57:11.998Z,102788.63
2023-04-06T02:59:39.888Z,102783.53
2023-04-06T03:02:07.648Z,102788.66
2023-04-06T03:04:35.634Z,102786.88
2023-04-06T03:07:04.853Z,102790.34
2023-04-06T03:09:32.641Z,102790.38
2023-04-06T03:12:00.996Z,102788.69
2023-04-06T03:14:30.292Z,102785.19
2023-04-06T03:16:58.074Z,102789.47
2023-04-06T03:19:25.829Z,102791.22
2023-04-06T03:21:53.511Z,102794.63
2023-04-06T03:24:22.743Z,102789.47
2023-04-06T03:26:50.494Z,102793.72
2023-04-06T03:29:18.173Z,102792.91
2023-04-06T03:31:45.948Z,102796.38
2023-04-06T03:34:13.825Z,102795.44
2023-04-06T03:36:41.717Z,102799.75
2023-04-06T03:39:10.437Z,102798.03
2023-04-06T03:41:39.663Z,102804.03
2023-04-06T03:44:07.541Z,102802.25
2023-04-06T03:46:35.458Z,102809.13
2023-04-06T03:49:03.288Z,102820.19
2023-04-06T03:51:31.008Z,102807.25
2023-04-06T03:53:58.794Z,102822.59
2023-04-06T03:56:26.555Z,102816.63
2023-04-06T03:58:55.782Z,102821.72
2023-04-06T04:01:23.625Z,102819.97
2023-04-06T04:03:52.069Z,102826.75
2023-04-06T04:06:19.909Z,102830.19
2023-04-06T04:08:47.692Z,102826.69
2023-04-06T04:11:16.852Z,102836.06
2023-04-06T04:13:44.643Z,102837.84
2023-04-06T04:16:13.861Z,102836.13
2023-04-06T04:18:41.631Z,102830.94
2023-04-06T04:21:09.331Z,102841.28
2023-04-06T04:23:37.465Z,102843.00
2023-04-06T04:26:05.516Z,102843.09
2023-04-06T04:28:33.279Z,102848.22
2023-04-06T04:31:01.066Z,102841.38
2023-04-06T04:33:30.251Z,102846.53
2023-04-06T04:35:58.080Z,102847.38
2023-04-06T04:38:25.918Z,102847.41
2023-04-06T04:40:53.655Z,102846.56
2023-04-06T04:43:21.442Z,102845.72
2023-04-06T04:45:51.876Z,102845.72
2023-04-06T04:48:19.705Z,102843.19
2023-04-06T04:50:48.847Z,102848.31
2023-04-06T04:53:16.586Z,102852.66
2023-04-06T04:55:44.320Z,102862.09
2023-04-06T04:58:15.310Z,102859.53
2023-04-06T05:00:43.057Z,102851.81
2023-04-06T05:03:11.267Z,102862.13
2023-04-06T05:05:39.095Z,102863.84
2023-04-06T05:08:08.201Z,102862.19
2023-04-06T05:10:36.932Z,102866.47
2023-04-06T05:13:04.648Z,102865.69
2023-04-06T05:15:32.465Z,102865.69
2023-04-06T05:18:00.183Z,102863.13
2023-04-06T05:20:27.992Z,102870.91
2023-04-06T05:22:55.945Z,102867.53
2023-04-06T05:25:25.082Z,102870.97
2023-04-06T05:27:53.037Z,102866.66
2023-04-06T05:30:21.497Z,102862.41
2023-04-06T05:32:49.541Z,102868.41
2023-04-06T05:35:18.243Z,102862.53
2023-04-06T05:37:46.255Z,102863.41
2023-04-06T05:40:14.112Z,102871.22
2023-04-06T05:42:44.393Z,102863.56
2023-04-06T05:45:17.556Z,102867.84
2023-04-06T05:47:45.943Z,102876.44
2023-04-06T05:50:14.037Z,102882.44
2023-04-06T05:52:44.096Z,102879.84
2023-04-06T05:55:12.148Z,102887.56
2023-04-06T05:57:39.902Z,102888.47
2023-04-06T06:00:10.881Z,102886.78
2023-04-06T06:02:38.729Z,102885.13
2023-04-06T06:05:06.763Z,102893.72
2023-04-06T06:07:34.575Z,102880.00
2023-04-06T06:10:02.278Z,102885.19
2023-04-06T06:12:30.125Z,102892.88
2023-04-06T06:14:58.005Z,102882.66
2023-04-06T06:17:27.244Z,102883.56
2023-04-06T06:19:55.008Z,102894.75
2023-04-06T06:22:22.749Z,102887.91
2023-04-06T06:24:50.822Z,102894.81
2023-04-06T06:27:18.597Z,102894.81
2023-04-06T06:29:46.388Z,102892.22
2023-04-06T06:32:14.133Z,102889.63
2023-04-06T06:34:43.280Z,102899.09
2023-04-06T06:37:11.174Z,102900.81
2023-04-06T06:39:38.998Z,102899.94
2023-04-06T06:42:06.794Z,102905.13
2023-04-06T06:44:34.545Z,102898.28
2023-04-06T06:47:02.240Z,102902.63
2023-04-06T06:49:30.077Z,102894.91
2023-04-06T06:51:59.296Z,102900.94
2023-04-06T06:54:27.012Z,102897.53
2023-04-06T06:56:55.379Z,102890.69
2023-04-06T06:59:23.315Z,102889.84
2023-04-06T07:01:52.036Z,102899.31
2023-04-06T07:04:19.815Z,102901.06
2023-04-06T07:06:47.695Z,102904.53
2023-04-06T07:09:16.824Z,102901.06
2023-04-06T07:11:44.657Z,102903.66
2023-04-06T07:14:12.682Z,102904.53
2023-04-06T07:16:40.470Z,102918.31
2023-04-06T07:19:09.114Z,102903.72
2023-04-06T07:21:36.929Z,102912.31
2023-04-06T07:24:04.775Z,102914.06
2023-04-06T07:26:33.987Z,102907.16
2023-04-06T07:29:01.860Z,102920.94
2023-04-06T07:31:29.736Z,102918.38
2023-04-06T07:33:57.559Z,102919.25
2023-04-06T07:36:25.306Z,102915.81
2023-04-06T07:38:53.085Z,102914.94
2023-04-06T07:41:20.852Z,102914.06
2023-04-06T07:43:50.125Z,102918.38
2023-04-06T07:46:17.889Z,102908.94
2023-04-06T07:48:45.736Z,102907.19
2023-04-06T07:51:15.326Z,102904.63
2023-04-06T07:53:43.149Z,102912.34
2023-04-06T07:56:10.995Z,102906.31
2023-04-06T07:58:38.686Z,102912.34
2023-04-06T08:01:07.866Z,102915.78
2023-04-06T08:03:35.969Z,102901.13
2023-04-06T08:06:04.528Z,102913.19
2023-04-06T08:08:32.373Z,102904.56
2023-04-06T08:11:02.046Z,102907.97
2023-04-06T08:13:30.336Z,102913.09
2023-04-06T08:15:58.197Z,102908.78
2023-04-06T08:18:27.491Z,102915.66
2023-04-06T08:20:56.627Z,102908.75
2023-04-06T08:23:24.368Z,102916.47
2023-04-06T08:25:55.166Z,102914.72
2023-04-06T08:28:22.998Z,102911.31
2023-04-06T08:30:50.823Z,102915.59
2023-04-06T08:33:18.660Z,102914.72
2023-04-06T08:35:47.843Z,102916.47
2023-04-06T08:38:15.563Z,102908.69
2023-04-06T08:40:45.409Z,102912.97
2023-04-06T08:43:15.498Z,102911.22
2023-04-06T08:45:43.561Z,102911.16
2023-04-06T08:48:11.631Z,102900.81
2023-04-06T08:50:40.321Z,102910.25
2023-04-06T08:53:10.271Z,102907.63
2023-04-06T08:55:38.096Z,102914.50
2023-04-06T08:58:08.829Z,102910.09
2023-04-06T09:00:39.834Z,102917.91
2023-04-06T09:03:08.686Z,102917.03
2023-04-06T09:05:37.182Z,102911.84
2023-04-06T09:08:05.053Z,102917.00
2023-04-06T09:10:35.172Z,102912.72
2023-04-06T09:13:07.013Z,102909.22
2023-04-06T09:15:34.787Z,102901.47
2023-04-06T09:18:02.648Z,102905.75
2023-04-06T09:20:30.489Z,102906.59
2023-04-06T09:22:58.390Z,102909.19
2023-04-06T09:25:27.869Z,102907.44
2023-04-06T09:28:04.099Z,102912.56
2023-04-06T09:30:32.015Z,102901.28
2023-04-06T09:33:00.506Z,102909.00
2023-04-06T09:35:30.445Z,102908.06
2023-04-06T09:37:58.604Z,102902.00
2023-04-06T09:40:30.266Z,102902.00
2023-04-06T09:43:00.330Z,102903.72
2023-04-06T09:45:31.665Z,102907.06
2023-04-06T09:47:59.811Z,102903.53
2023-04-06T09:50:28.870Z,102908.56
2023-04-06T09:52:57.912Z,102906.81
2023-04-06T09:55:28.423Z,102902.63
2023-04-06T09:57:59.902Z,102913.03
2023-04-06T10:00:30.559Z,102907.84
2023-04-06T10:03:00.712Z,102904.31
2023-04-06T10:05:32.859Z,102913.91
2023-04-06T10:08:03.778Z,102908.72
2023-04-06T10:10:32.198Z,102905.19
2023-04-06T10:13:01.042Z,102908.50
2023-04-06T10:15:31.073Z,102905.91
2023-04-06T10:17:59.183Z,102909.31
2023-04-06T10:20:30.207Z,102907.56
2023-04-06T10:23:01.725Z,102910.16
2023-04-06T10:25:30.380Z,102911.03
2023-04-06T10:28:01.825Z,102910.25
2023-04-06T10:30:32.168Z,102911.84
2023-04-06T10:33:00.115Z,102911.88
2023-04-06T10:35:38.358Z,102914.44
2023-04-06T10:38:06.547Z,102907.47
2023-04-06T10:40:34.240Z,102900.50
2023-04-06T10:43:09.527Z,102901.34
2023-04-06T10:45:39.137Z,102892.69
2023-04-06T10:48:17.042Z,102892.66
2023-04-06T10:50:45.703Z,102897.03
2023-04-06T10:53:13.676Z,102897.84
2023-04-06T10:55:42.200Z,102906.47
2023-04-06T10:58:10.330Z,102898.69
2023-04-06T11:03:15.398Z,102905.50
2023-04-06T11:05:47.729Z,102901.19
2023-04-06T11:08:24.382Z,102896.88
2023-04-06T11:10:54.308Z,102898.66
2023-04-06T11:13:22.045Z,102896.03
2023-04-06T11:15:51.199Z,102897.72
2023-04-06T11:18:19.841Z,102902.06
2023-04-06T11:20:49.800Z,102897.78
2023-04-06T11:23:24.601Z,102892.59
2023-04-06T11:25:52.941Z,102890.03
2023-04-06T11:28:20.849Z,102896.09
2023-04-06T11:30:49.264Z,102896.09
2023-04-06T11:33:24.032Z,102893.41
2023-04-06T11:35:51.870Z,102889.91
2023-04-06T11:38:20.497Z,102895.03
2023-04-06T11:40:48.321Z,102882.91
2023-04-06T11:43:16.479Z,102880.31
2023-04-06T11:45:44.730Z,102889.78
2023-04-06T11:48:20.261Z,102882.00
2023-04-06T11:50:50.109Z,102877.72
2023-04-06T11:53:17.802Z,102882.03
2023-04-06T11:55:47.872Z,102878.50
2023-04-06T11:58:16.064Z,102875.88
2023-04-06T12:00:47.357Z,102879.34
2023-04-06T12:03:15.854Z,102878.50
2023-04-06T12:05:43.771Z,102873.38
2023-04-06T12:08:13.084Z,102875.06
2023-04-06T12:10:40.911Z,102876.81
2023-04-06T12:13:08.671Z,102869.84
2023-04-06T12:15:36.541Z,102871.50
2023-04-06T12:18:04.413Z,102869.72
2023-04-06T12:20:32.256Z,102873.13
2023-04-06T12:23:00.135Z,102879.22
2023-04-06T12:25:31.093Z,102870.56
2023-04-06T12:27:58.953Z,102876.59
2023-04-06T12:30:26.739Z,102866.22
2023-04-06T12:32:54.546Z,102868.72
2023-04-06T12:35:22.863Z,102869.59
2023-04-06T12:37:50.859Z,102868.63
2023-04-06T12:40:18.630Z,102868.53
2023-04-06T12:42:47.955Z,102866.69
2023-04-06T12:45:15.704Z,102862.41
2023-04-06T12:47:43.528Z,102860.69
2023-04-06T12:50:11.496Z,102854.56
2023-04-06T12:52:39.296Z,102846.69
2023-04-06T12:55:07.893Z,102847.72
2023-04-06T12:57:35.812Z,102850.38
2023-04-06T13:00:07.789Z,102848.59
2023-04-06T13:02:36.938Z,102835.44
2023-04-06T13:05:04.795Z,102833.66
2023-04-06T13:07:32.540Z,102835.44
2023-04-06T13:10:00.572Z,102836.38
2023-04-06T13:12:28.410Z,102832.88
2023-04-06T13:14:56.167Z,102835.41
2023-04-06T13:17:25.390Z,102841.50
2023-04-06T13:19:53.182Z,102837.22
2023-04-06T13:22:20.959Z,102846.81
2023-04-06T13:24:48.735Z,102832.13
2023-04-06T13:27:16.476Z,102831.19
2023-04-06T13:29:44.272Z,102831.09
2023-04-06T13:32:12.149Z,102830.28
2023-04-06T13:34:41.496Z,102831.28
2023-04-06T13:37:09.210Z,102825.22
2023-04-06T13:39:37.318Z,102821.78
2023-04-06T13:42:05.054Z,102823.47
2023-04-06T13:44:32.797Z,102828.69
2023-04-06T13:47:00.568Z,102824.41
2023-04-06T13:49:28.993Z,102820.94
2023-04-06T13:51:58.144Z,102820.97
2023-04-06T13:54:25.815Z,102817.53
2023-04-06T13:56:53.683Z,102816.72
2023-04-06T13:59:21.308Z,102825.38
2023-04-06T14:01:49.994Z,102823.72
2023-04-06T14:04:17.750Z,102822.91
2023-04-06T14:06:46.978Z,102826.34
2023-04-06T14:09:16.100Z,102816.88
2023-04-06T14:11:43.741Z,102812.59
2023-04-06T14:14:11.565Z,102807.34
2023-04-06T14:16:39.425Z,102806.47
2023-04-06T14:19:07.036Z,102804.66
2023-04-06T14:21:34.717Z,102799.44
2023-04-06T14:24:02.799Z,102802.84
2023-04-06T14:26:33.095Z,102802.81
2023-04-06T14:29:01.069Z,102801.94
2023-04-06T14:31:28.788Z,102801.06
2023-04-06T14:33:56.897Z,102801.97
2023-04-06T14:36:24.689Z,102791.59
2023-04-06T14:38:53.925Z,102802.78
2023-04-06T14:41:22.230Z,102796.78
2023-04-06T14:43:53.556Z,102798.63
2023-04-06T14:46:21.341Z,102797.78
2023-04-06T14:48:49.037Z,102796.88
2023-04-06T14:51:17.731Z,102791.69
2023-04-06T14:53:45.759Z,102797.69
2023-04-06T14:56:13.551Z,102784.75
2023-04-06T14:58:41.292Z,102789.91
2023-04-06T15:01:10.300Z,102794.25
2023-04-06T15:03:38.101Z,102789.88
2023-04-06T15:06:06.456Z,102784.56
2023-04-06T15:08:35.406Z,102787.13
2023-04-06T15:11:03.436Z,102786.28
2023-04-06T15:13:31.191Z,102786.28
2023-04-06T15:16:01.275Z,102779.41
2023-04-06T15:18:31.084Z,102774.25
2023-04-06T15:20:58.972Z,102780.38
2023-04-06T15:23:26.935Z,102776.94
2023-04-06T15:25:54.632Z,102782.22
2023-04-06T15:28:22.348Z,102777.91
2023-04-06T15:30:50.168Z,102773.63
2023-04-06T15:33:18.343Z,102774.47
2023-04-06T15:35:47.733Z,102783.16
2023-04-06T15:38:15.882Z,102778.00
2023-04-06T15:40:47.252Z,102778.03
2023-04-06T15:43:15.538Z,102771.16
2023-04-06T15:45:43.411Z,102777.22
2023-04-06T15:48:11.183Z,102781.56
2023-04-06T15:50:38.874Z,102775.50
2023-04-06T15:53:07.853Z,102772.91
2023-04-06T15:55:35.584Z,102767.72
2023-04-06T15:58:03.200Z,102768.63
2023-04-06T16:00:31.181Z,102762.63
2023-04-06T16:02:59.152Z,102765.25
2023-04-06T16:05:28.501Z,102760.97
2023-04-06T16:07:57.523Z,102754.03
2023-04-06T16:10:26.648Z,102760.13
2023-04-06T16:12:54.297Z,102754.97
2023-04-06T16:15:22.047Z,102751.44
2023-04-06T16:17:49.774Z,102759.28
2023-04-06T16:20:17.585Z,102758.47
2023-04-06T16:22:45.383Z,102748.94
2023-04-06T16:25:13.089Z,102750.75
2023-04-06T16:27:43.247Z,102749.03
2023-04-06T16:30:11.635Z,102759.50
2023-04-06T16:32:39.439Z,102758.75
2023-04-06T16:35:07.739Z,102756.25
2023-04-06T16:37:36.119Z,102752.88
2023-04-06T16:40:04.282Z,102759.81
2023-04-06T16:42:32.007Z,102757.22
2023-04-06T16:45:01.108Z,102760.69
2023-04-06T16:47:28.918Z,102756.38
2023-04-06T16:50:05.585Z,102770.22
2023-04-06T16:52:34.274Z,102763.31
2023-04-06T16:55:01.986Z,102773.69
2023-04-06T16:57:30.234Z,102771.16
2023-04-06T16:59:57.900Z,102766.03
2023-04-06T17:02:27.477Z,102773.84
2023-04-06T17:04:55.195Z,102771.31
2023-04-06T17:07:26.488Z,102773.94
2023-04-06T17:09:54.226Z,102780.09
2023-04-06T17:12:21.917Z,102780.16
2023-04-06T17:14:52.545Z,102781.97
2023-04-06T17:17:20.220Z,102792.34
2023-04-06T17:19:49.200Z,102784.63
2023-04-06T17:22:20.719Z,102791.59
2023-04-06T17:24:49.231Z,102791.63
2023-04-06T17:27:17.061Z,102792.56
2023-04-06T17:29:44.734Z,102796.00
2023-04-06T17:32:12.687Z,102796.91
2023-04-06T17:34:40.428Z,102801.28
2023-04-06T17:37:09.450Z,102799.56
2023-04-06T17:39:37.107Z,102808.25
2023-04-06T17:42:05.434Z,102809.16
2023-04-06T17:44:33.337Z,102806.56
2023-04-06T17:47:00.959Z,102806.59
2023-04-06T17:49:28.638Z,102802.31
2023-04-06T17:51:56.278Z,102804.06
2023-04-06T17:54:25.501Z,102808.44
2023-04-06T17:56:53.563Z,102806.72
2023-04-06T17:59:21.179Z,102804.16
2023-04-06T18:01:48.864Z,102809.34
2023-04-06T18:04:16.617Z,102813.66
2023-04-06T18:06:44.324Z,102811.94
2023-04-06T18:09:12.013Z,102806.78
2023-04-06T18:11:41.235Z,102814.53
2023-04-06T18:14:09.331Z,102812.88
2023-04-06T18:16:36.977Z,102817.19
2023-04-06T18:19:04.913Z,102820.66
2023-04-06T18:21:32.885Z,102817.22
2023-04-06T18:24:04.743Z,102820.66
2023-04-06T18:26:33.523Z,102822.38
2023-04-06T18:29:02.705Z,102817.25
2023-04-06T18:31:30.827Z,102819.81
2023-04-06T18:33:58.933Z,102818.13
2023-04-06T18:36:27.709Z,102821.56
2023-04-06T18:38:55.431Z,102820.75
2023-04-06T18:41:23.185Z,102823.34
2023-04-06T18:43:50.887Z,102825.94
2023-04-06T18:46:20.640Z,102821.63
2023-04-06T18:48:48.408Z,102817.31
2023-04-06T18:51:16.209Z,102818.22
2023-04-06T18:53:43.949Z,102822.53
2023-04-06T18:56:15.808Z,102832.00
2023-04-06T18:58:43.680Z,102830.28
2023-04-06T19:01:11.344Z,102832.03
2023-04-06T19:03:40.876Z,102836.34
2023-04-06T19:06:08.828Z,102828.59
2023-04-06T19:08:39.192Z,102832.91
2023-04-06T19:11:08.470Z,102827.78
2023-04-06T19:13:38.050Z,102832.13
2023-04-06T19:16:08.412Z,102838.13
2023-04-06T19:18:37.239Z,102840.72
2023-04-06T19:21:06.573Z,102844.16
2023-04-06T19:23:35.088Z,102842.44
2023-04-06T19:26:03.025Z,102837.28
2023-04-06T19:28:30.689Z,102836.41
2023-04-06T19:30:58.296Z,102841.56
2023-04-06T19:33:26.022Z,102837.28
2023-04-06T19:35:53.843Z,102836.41
2023-04-06T19:38:22.961Z,102840.72
2023-04-06T19:40:50.632Z,102837.31
2023-04-06T19:43:18.922Z,102834.72
2023-04-06T19:45:46.524Z,102835.56
2023-04-06T19:48:14.449Z,102837.31
2023-04-06T19:50:42.119Z,102829.56
2023-04-06T19:53:09.805Z,102837.31
2023-04-06T19:55:38.959Z,102833.00
2023-04-06T19:58:07.046Z,102835.56
2023-04-06T20:00:37.502Z,102829.56
2023-04-06T20:03:05.307Z,102838.16
2023-04-06T20:05:33.014Z,102836.47
2023-04-06T20:08:00.822Z,102846.81
2023-04-06T20:10:28.458Z,102839.06
2023-04-06T20:12:57.613Z,102844.22
2023-04-06T20:15:25.551Z,102838.19
2023-04-06T20:17:53.409Z,102842.53
2023-04-06T20:20:21.164Z,102842.53
2023-04-06T20:22:50.133Z,102839.06
2023-04-06T20:25:19.189Z,102842.53
2023-04-06T20:27:47.005Z,102849.41
2023-04-06T20:30:16.782Z,102846.81
2023-04-06T20:32:44.757Z,102855.47
2023-04-06T20:35:12.628Z,102844.25
2023-04-06T20:37:40.391Z,102845.13
2023-04-06T20:40:08.586Z,102845.13
2023-04-06T20:42:37.268Z,102852.00
2023-04-06T20:45:05.518Z,102835.66
2023-04-06T20:47:34.743Z,102850.31
2023-04-06T20:50:02.678Z,102850.31
2023-04-06T20:52:30.293Z,102852.03
2023-04-06T20:54:58.106Z,102847.75
2023-04-06T20:57:26.290Z,102846.88
2023-04-06T20:59:54.023Z,102846.88
2023-04-06T21:02:22.051Z,102847.75
2023-04-06T21:04:51.355Z,102850.34
2023-04-06T21:07:19.124Z,102851.19
2023-04-06T21:09:46.795Z,102853.75
2023-04-06T21:12:14.424Z,102862.38
2023-04-06T21:14:42.986Z,102852.06
2023-04-06T21:17:11.614Z,102860.69
2023-04-06T21:19:39.275Z,102852.06
2023-04-06T21:22:08.331Z,102846.00
2023-04-06T21:24:35.995Z,102848.59
2023-04-06T21:27:03.651Z,102846.88
2023-04-06T21:29:33.016Z,102852.91
2023-04-06T21:32:03.753Z,102852.94
2023-04-06T21:34:31.595Z,102852.94
2023-04-06T21:36:59.285Z,102849.47
2023-04-06T21:39:28.408Z,102851.19
2023-04-06T21:41:56.515Z,102849.50
2023-04-06T21:44:24.159Z,102854.66
2023-04-06T21:46:51.892Z,102853.81
2023-04-06T21:49:19.612Z,102851.25
2023-04-06T21:51:47.467Z,102849.50
2023-04-06T21:54:18.866Z,102846.91
2023-04-06T21:56:48.316Z,102851.25
2023-04-06T21:59:16.007Z,102857.25
2023-04-06T22:01:43.855Z,102856.41
2023-04-06T22:04:11.685Z,102851.25
2023-04-06T22:06:39.400Z,102850.38
2023-04-06T22:09:07.167Z,102853.81
2023-04-06T22:11:34.835Z,102858.97
2023-04-06T22:14:05.194Z,102851.25
2023-04-06T22:16:33.119Z,102862.41
2023-04-06T22:19:00.875Z,102856.41
2023-04-06T22:21:29.308Z,102859.81
2023-04-06T22:23:57.045Z,102858.13
2023-04-06T22:26:24.798Z,102860.69
2023-04-06T22:28:52.448Z,102857.25
2023-04-06T22:31:22.199Z,102858.97
2023-04-06T22:33:50.114Z,102858.09
2023-04-06T22:36:17.759Z,102856.41
2023-04-06T22:38:45.396Z,102856.41
2023-04-06T22:41:13.034Z,102856.41
2023-04-06T22:43:40.828Z,102858.13
2023-04-06T22:46:08.510Z,102847.78
2023-04-06T22:48:37.610Z,102846.09
2023-04-06T22:51:05.438Z,102851.25
2023-04-06T22:53:33.213Z,102840.91
2023-04-06T22:56:00.913Z,102841.75
2023-04-06T22:58:28.624Z,102840.94
2023-04-06T23:00:56.487Z,102843.50
2023-04-06T23:03:24.260Z,102841.78
2023-04-06T23:05:53.699Z,102834.03
2023-04-06T23:08:21.360Z,102834.03
2023-04-06T23:10:49.032Z,102836.59
2023-04-06T23:13:16.698Z,102847.81
2023-04-06T23:15:44.315Z,102843.50
2023-04-06T23:18:12.031Z,102846.94
2023-04-06T23:20:40.410Z,102846.94
2023-04-06T23:23:09.407Z,102851.25
2023-04-06T23:25:37.068Z,102842.66
2023-04-06T23:28:04.776Z,102846.94
2023-04-06T23:30:32.424Z,102846.09
2023-04-06T23:33:00.282Z,102845.22
2023-04-06T23:35:27.966Z,102849.53
2023-04-06T23:37:55.639Z,102843.53
2023-04-06T23:40:25.339Z,102840.06
2023-04-06T23:42:53.062Z,102847.81
2023-04-06T23:45:20.804Z,102843.53
2023-04-06T23:47:48.529Z,102840.94
2023-04-06T23:50:16.203Z,102838.38
2023-04-06T23:52:43.860Z,102840.06
2023-04-06T23:55:11.523Z,102842.66
2023-04-06T23:57:40.635Z,102833.19
